createdAt,value
2023-02-27T00:02:12.006Z,5.72
2023-02-27T00:04:38.517Z,5.76
2023-02-27T00:07:05.117Z,6.03
2023-02-27T00:09:31.615Z,5.76
2023-02-27T00:11:58.135Z,5.41
2023-02-27T00:14:24.753Z,5.37
2023-02-27T00:16:51.299Z,5.64
2023-02-27T00:19:17.839Z,5.68
2023-02-27T00:21:44.596Z,4.90
2023-02-27T00:24:11.636Z,5.03
2023-02-27T00:26:38.159Z,5.29
2023-02-27T00:29:06.242Z,5.05
2023-02-27T00:31:33.116Z,5.27
2023-02-27T00:33:59.705Z,5.00
2023-02-27T00:36:26.846Z,5.50
2023-02-27T00:38:53.419Z,5.15
2023-02-27T00:41:19.952Z,5.15
2023-02-27T00:43:46.484Z,5.50
2023-02-27T00:46:13.240Z,5.23
2023-02-27T00:48:39.831Z,5.11
2023-02-27T00:51:08.187Z,5.20
2023-02-27T00:53:34.733Z,5.15
2023-02-27T00:56:01.255Z,4.71
2023-02-27T00:58:27.983Z,5.31
2023-02-27T01:00:54.577Z,5.13
2023-02-27T01:03:21.197Z,5.15
2023-02-27T01:05:47.717Z,5.25
2023-02-27T01:08:14.482Z,5.26
2023-02-27T01:10:41.114Z,4.69
2023-02-27T01:13:08.705Z,4.20
2023-02-27T01:15:36.493Z,4.76
2023-02-27T01:18:03.193Z,4.87
2023-02-27T01:20:29.724Z,5.07
2023-02-27T01:22:56.791Z,4.98
2023-02-27T01:25:23.315Z,5.22
2023-02-27T01:27:50.132Z,5.16
2023-02-27T01:30:16.855Z,4.92
2023-02-27T01:32:44.524Z,5.54
2023-02-27T01:35:11.213Z,5.36
2023-02-27T01:37:37.785Z,5.26
2023-02-27T01:40:04.986Z,5.23
2023-02-27T01:42:31.496Z,5.24
2023-02-27T01:45:27.017Z,4.80
2023-02-27T01:48:00.936Z,5.33
2023-02-27T01:50:27.718Z,5.25
2023-02-27T01:52:58.860Z,5.46
2023-02-27T01:55:29.337Z,4.98
2023-02-27T01:57:56.790Z,5.50
2023-02-27T02:00:23.779Z,5.48
2023-02-27T02:03:02.410Z,4.74
2023-02-27T02:05:30.260Z,5.32
2023-02-27T02:07:58.899Z,4.77
2023-02-27T02:10:27.383Z,5.37
2023-02-27T02:12:55.377Z,5.41
2023-02-27T02:15:30.075Z,5.39
2023-02-27T02:18:09.469Z,5.46
2023-02-27T02:20:39.274Z,5.15
2023-02-27T02:23:05.758Z,5.25
2023-02-27T02:26:11.043Z,5.59
2023-02-27T02:28:49.531Z,5.49
2023-02-27T02:31:34.953Z,5.53
2023-02-27T02:34:19.673Z,5.60
2023-02-27T02:37:13.207Z,5.55
2023-02-27T02:40:10.465Z,5.45
2023-02-27T02:42:43.758Z,5.78
2023-02-27T02:45:27.142Z,5.45
2023-02-27T02:48:16.594Z,5.80
2023-02-27T02:51:11.898Z,5.73
2023-02-27T02:53:46.068Z,5.54
2023-02-27T02:56:43.572Z,5.55
2023-02-27T02:59:22.460Z,5.90
2023-02-27T03:02:07.641Z,5.86
2023-02-27T03:04:53.257Z,5.85
2023-02-27T03:07:34.505Z,5.61
2023-02-27T03:10:13.665Z,5.16
2023-02-27T03:12:46.524Z,5.47
2023-02-27T03:15:29.978Z,5.33
2023-02-27T03:18:07.024Z,5.44
2023-02-27T03:20:39.858Z,5.52
2023-02-27T03:23:13.664Z,5.48
2023-02-27T03:25:46.102Z,5.24
2023-02-27T03:28:23.575Z,5.52
2023-02-27T03:31:01.603Z,5.52
2023-02-27T03:33:48.717Z,5.29
2023-02-27T03:36:32.836Z,5.41
2023-02-27T03:39:00.017Z,5.57
2023-02-27T03:42:06.444Z,5.73
2023-02-27T03:45:02.670Z,5.54
2023-02-27T03:47:30.224Z,5.96
2023-02-27T03:49:57.323Z,5.77
2023-02-27T03:52:26.194Z,5.69
2023-02-27T03:55:20.863Z,5.32
2023-02-27T03:57:49.436Z,5.59
2023-02-27T04:00:19.639Z,5.72
2023-02-27T04:02:50.682Z,5.01
2023-02-27T04:05:21.110Z,5.57
2023-02-27T04:08:24.578Z,5.31
2023-02-27T04:11:03.279Z,5.42
2023-02-27T04:13:51.115Z,5.06
2023-02-27T04:16:45.914Z,5.53
2023-02-27T04:19:43.502Z,5.53
2023-02-27T04:22:32.563Z,5.35
2023-02-27T04:25:23.761Z,5.69
2023-02-27T04:28:03.162Z,5.44
2023-02-27T04:30:44.303Z,4.90
2023-02-27T04:33:57.608Z,5.55
2023-02-27T04:36:35.172Z,5.65
2023-02-27T04:39:10.896Z,5.52
2023-02-27T04:41:43.379Z,5.46
2023-02-27T04:44:12.431Z,5.35
2023-02-27T04:46:42.883Z,5.30
2023-02-27T04:49:16.308Z,5.55
2023-02-27T04:51:52.207Z,5.68
2023-02-27T04:54:26.876Z,5.45
2023-02-27T04:57:02.176Z,5.60
2023-02-27T04:59:34.038Z,5.24
2023-02-27T05:02:12.196Z,5.52
2023-02-27T05:04:41.721Z,5.14
2023-02-27T05:07:13.551Z,5.42
2023-02-27T05:09:58.684Z,4.86
2023-02-27T05:12:33.085Z,4.78
2023-02-27T05:15:04.524Z,4.98
2023-02-27T05:17:37.978Z,4.78
2023-02-27T05:20:09.084Z,4.73
2023-02-27T05:22:56.892Z,5.23
2023-02-27T05:25:59.713Z,5.02
2023-02-27T05:28:46.230Z,4.74
2023-02-27T05:31:30.458Z,4.90
2023-02-27T05:34:05.925Z,5.31
2023-02-27T05:36:42.432Z,5.45
2023-02-27T05:39:11.596Z,5.12
2023-02-27T05:41:50.628Z,5.15
2023-02-27T05:44:32.912Z,5.38
2023-02-27T05:47:04.762Z,4.79
2023-02-27T05:49:36.987Z,5.10
2023-02-27T05:52:07.582Z,5.13
2023-02-27T05:54:42.765Z,4.93
2023-02-27T05:57:14.880Z,5.01
2023-02-27T05:59:53.734Z,4.94
2023-02-27T06:02:20.381Z,4.95
2023-02-27T06:04:47.064Z,5.16
2023-02-27T06:07:14.732Z,5.28
2023-02-27T06:09:43.288Z,5.34
2023-02-27T06:12:09.924Z,5.39
2023-02-27T06:14:36.579Z,5.18
2023-02-27T06:17:03.165Z,5.36
2023-02-27T06:19:29.733Z,4.81
2023-02-27T06:21:56.292Z,5.22
2023-02-27T06:24:23.159Z,4.85
2023-02-27T06:26:49.669Z,4.83
2023-02-27T06:29:16.507Z,4.71
2023-02-27T06:31:43.192Z,5.14
2023-02-27T06:34:09.755Z,5.02
2023-02-27T06:36:36.877Z,5.28
2023-02-27T06:39:04.859Z,5.39
2023-02-27T06:41:31.408Z,5.25
2023-02-27T06:43:58.098Z,4.86
2023-02-27T06:46:25.261Z,5.15
2023-02-27T06:48:52.098Z,4.91
2023-02-27T06:51:18.706Z,5.23
2023-02-27T06:53:45.637Z,5.79
2023-02-27T06:56:12.214Z,5.20
2023-02-27T06:58:38.766Z,5.44
2023-02-27T07:01:05.518Z,5.85
2023-02-27T07:03:32.263Z,6.07
2023-02-27T07:05:59.269Z,5.83
2023-02-27T07:08:25.878Z,5.46
2023-02-27T07:10:52.424Z,5.75
2023-02-27T07:13:19.860Z,6.22
2023-02-27T07:15:47.687Z,5.90
2023-02-27T07:18:14.319Z,6.43
2023-02-27T07:20:40.959Z,5.77
2023-02-27T07:23:07.500Z,6.21
2023-02-27T07:25:34.109Z,6.37
2023-02-27T07:28:00.691Z,5.69
2023-02-27T07:30:27.240Z,6.16
2023-02-27T07:32:53.857Z,6.06
2023-02-27T07:35:20.424Z,6.42
2023-02-27T07:37:47.561Z,6.19
2023-02-27T07:40:14.851Z,6.05
2023-02-27T07:42:41.463Z,6.58
2023-02-27T07:45:08.839Z,5.98
2023-02-27T07:47:35.935Z,6.80
2023-02-27T07:50:03.752Z,5.57
2023-02-27T07:52:31.194Z,5.56
2023-02-27T07:54:57.833Z,6.48
2023-02-27T07:57:24.406Z,6.67
2023-02-27T07:59:50.961Z,5.73
2023-02-27T08:02:17.523Z,6.50
2023-02-27T08:04:44.121Z,6.91
2023-02-27T08:07:10.731Z,7.26
2023-02-27T08:09:37.328Z,7.24
2023-02-27T08:12:04.515Z,6.82
2023-02-27T08:14:31.109Z,6.60
2023-02-27T08:16:57.668Z,6.53
2023-02-27T08:19:24.194Z,7.19
2023-02-27T08:21:50.725Z,7.17
2023-02-27T08:24:17.336Z,6.55
2023-02-27T08:26:43.818Z,6.78
2023-02-27T08:29:10.371Z,6.93
2023-02-27T08:31:37.095Z,7.23
2023-02-27T08:34:10.197Z,6.71
2023-02-27T08:36:37.561Z,7.01
2023-02-27T08:39:04.417Z,6.56
2023-02-27T08:41:31.128Z,7.17
2023-02-27T08:43:57.660Z,7.22
2023-02-27T08:46:24.348Z,7.11
2023-02-27T08:48:50.966Z,7.53
2023-02-27T08:51:17.514Z,7.37
2023-02-27T08:53:44.156Z,6.12
2023-02-27T08:56:10.910Z,7.48
2023-02-27T08:58:37.634Z,6.23
2023-02-27T09:01:04.244Z,7.70
2023-02-27T09:03:31.503Z,7.10
2023-02-27T09:05:58.738Z,7.10
2023-02-27T09:08:25.399Z,6.74
2023-02-27T09:10:55.908Z,7.16
2023-02-27T09:13:22.619Z,7.19
2023-02-27T09:15:49.220Z,6.96
2023-02-27T09:18:15.827Z,7.19
2023-02-27T09:20:42.357Z,7.46
2023-02-27T09:23:08.902Z,7.32
2023-02-27T09:25:35.426Z,7.06
2023-02-27T09:28:01.927Z,7.63
2023-02-27T09:30:28.534Z,7.38
2023-02-27T09:32:55.059Z,7.47
2023-02-27T09:35:22.130Z,6.82
2023-02-27T09:37:49.507Z,6.62
2023-02-27T09:40:23.890Z,7.47
2023-02-27T09:42:52.012Z,7.61
2023-02-27T09:45:24.999Z,7.97
2023-02-27T09:47:56.228Z,8.01
2023-02-27T09:50:37.652Z,7.25
2023-02-27T09:53:14.831Z,6.91
2023-02-27T09:55:43.493Z,7.11
2023-02-27T09:58:28.028Z,7.44
2023-02-27T10:01:06.788Z,7.68
2023-02-27T10:04:03.811Z,8.69
2023-02-27T10:06:39.258Z,8.11
2023-02-27T10:09:14.789Z,7.73
2023-02-27T10:12:12.830Z,7.52
2023-02-27T10:14:55.016Z,7.43
2023-02-27T10:17:49.983Z,7.81
2023-02-27T10:20:28.014Z,7.64
2023-02-27T10:22:57.474Z,8.28
2023-02-27T10:25:31.736Z,8.53
2023-02-27T10:28:11.127Z,8.68
2023-02-27T10:30:37.766Z,8.93
2023-02-27T10:33:33.510Z,8.31
2023-02-27T10:36:02.180Z,7.60
2023-02-27T10:38:37.541Z,8.65
2023-02-27T10:41:05.936Z,8.43
2023-02-27T10:43:32.599Z,8.33
2023-02-27T10:46:06.596Z,8.18
2023-02-27T10:48:33.360Z,7.90
2023-02-27T10:51:31.170Z,8.27
2023-02-27T10:54:19.030Z,7.39
2023-02-27T10:56:49.556Z,7.73
2023-02-27T10:59:40.315Z,8.27
2023-02-27T11:02:16.118Z,8.82
2023-02-27T11:04:53.633Z,7.12
2023-02-27T11:07:46.906Z,6.93
2023-02-27T11:10:13.421Z,7.63
2023-02-27T11:12:42.188Z,7.71
2023-02-27T11:15:35.280Z,7.38
2023-02-27T11:18:29.185Z,6.90
2023-02-27T11:21:20.153Z,7.14
2023-02-27T11:23:54.681Z,7.70
2023-02-27T11:26:33.613Z,7.01
2023-02-27T11:29:08.132Z,7.03
2023-02-27T11:31:37.812Z,7.47
2023-02-27T11:34:06.129Z,7.51
2023-02-27T11:36:51.567Z,7.89
2023-02-27T11:39:29.165Z,7.39
2023-02-27T11:41:59.151Z,7.19
2023-02-27T11:44:41.900Z,7.27
2023-02-27T11:47:28.555Z,7.23
2023-02-27T11:50:17.934Z,8.11
2023-02-27T11:52:50.809Z,8.20
2023-02-27T11:55:21.952Z,7.68
2023-02-27T11:57:54.507Z,7.87
2023-02-27T12:00:25.193Z,7.17
2023-02-27T12:03:11.350Z,7.38
2023-02-27T12:05:43.750Z,7.02
2023-02-27T12:08:25.254Z,6.92
2023-02-27T12:11:12.384Z,7.75
2023-02-27T12:13:44.911Z,7.70
2023-02-27T12:16:33.735Z,7.98
2023-02-27T12:19:10.855Z,7.86
2023-02-27T12:21:42.110Z,7.19
2023-02-27T12:24:22.672Z,7.31
2023-02-27T12:26:57.480Z,7.71
2023-02-27T12:29:36.274Z,7.82
2023-02-27T12:32:22.287Z,7.39
2023-02-27T12:35:00.175Z,7.03
2023-02-27T12:37:29.662Z,7.69
2023-02-27T12:40:00.684Z,7.78
2023-02-27T12:42:52.381Z,7.29
2023-02-27T12:45:43.401Z,8.18
2023-02-27T12:48:23.735Z,7.93
2023-02-27T12:51:02.625Z,7.51
2023-02-27T12:53:34.402Z,7.94
2023-02-27T12:56:11.845Z,8.04
2023-02-27T12:59:07.199Z,8.32
2023-02-27T13:02:06.107Z,8.44
2023-02-27T13:04:48.405Z,8.18
2023-02-27T13:07:25.659Z,8.15
2023-02-27T13:09:56.992Z,8.09
2023-02-27T13:12:33.556Z,8.52
2023-02-27T13:15:04.681Z,8.57
2023-02-27T13:17:33.917Z,8.00
2023-02-27T13:20:25.331Z,7.86
2023-02-27T13:23:03.203Z,8.02
2023-02-27T13:25:32.031Z,8.91
2023-02-27T13:28:04.636Z,9.08
2023-02-27T13:30:39.931Z,8.64
2023-02-27T13:33:29.581Z,9.31
2023-02-27T13:36:10.399Z,9.56
2023-02-27T13:38:56.443Z,8.52
2023-02-27T13:41:27.927Z,8.67
2023-02-27T13:43:59.830Z,8.81
2023-02-27T13:46:30.561Z,8.91
2023-02-27T13:49:09.213Z,8.26
2023-02-27T13:51:43.152Z,8.50
2023-02-27T13:54:15.951Z,9.51
2023-02-27T13:57:04.923Z,9.15
2023-02-27T13:59:34.643Z,9.03
2023-02-27T14:02:27.166Z,9.40
2023-02-27T14:04:58.225Z,8.57
2023-02-27T14:07:29.001Z,8.25
2023-02-27T14:10:11.680Z,9.12
2023-02-27T14:12:46.493Z,9.42
2023-02-27T14:15:22.333Z,9.32
2023-02-27T14:18:09.670Z,9.44
2023-02-27T14:20:39.001Z,8.94
2023-02-27T14:23:14.728Z,8.88
2023-02-27T14:25:53.687Z,9.41
2023-02-27T14:28:23.066Z,9.27
2023-02-27T14:31:01.852Z,8.04
2023-02-27T14:34:05.162Z,8.06
2023-02-27T14:36:50.009Z,8.19
2023-02-27T14:39:27.748Z,8.60
2023-02-27T14:42:03.071Z,7.80
2023-02-27T14:44:43.464Z,8.70
2023-02-27T14:47:26.158Z,8.11
2023-02-27T14:49:52.933Z,8.50
2023-02-27T14:52:29.697Z,9.02
2023-02-27T14:55:33.253Z,8.31
2023-02-27T14:58:09.019Z,8.64
2023-02-27T15:00:41.925Z,8.77
2023-02-27T15:03:21.351Z,9.59
2023-02-27T15:05:54.080Z,9.44
2023-02-27T15:08:23.788Z,8.66
2023-02-27T15:10:52.807Z,8.20
2023-02-27T15:13:31.938Z,8.80
2023-02-27T15:16:18.547Z,8.60
2023-02-27T15:19:11.845Z,8.18
2023-02-27T15:21:42.753Z,7.32
2023-02-27T15:24:23.775Z,8.24
2023-02-27T15:26:57.142Z,8.37
2023-02-27T15:29:29.781Z,8.57
2023-02-27T15:31:56.361Z,8.02
2023-02-27T15:34:22.990Z,7.72
2023-02-27T15:36:55.520Z,7.63
2023-02-27T15:39:27.096Z,7.59
2023-02-27T15:42:01.128Z,7.57
2023-02-27T15:44:33.451Z,7.89
2023-02-27T15:47:00.406Z,7.43
2023-02-27T15:49:27.493Z,6.76
2023-02-27T15:52:17.381Z,7.25
2023-02-27T15:54:51.420Z,7.48
2023-02-27T15:57:20.682Z,7.88
2023-02-27T15:59:47.538Z,7.38
2023-02-27T16:02:45.032Z,7.09
2023-02-27T16:05:29.072Z,7.36
2023-02-27T16:07:55.632Z,6.69
2023-02-27T16:10:29.006Z,6.99
2023-02-27T16:12:55.724Z,6.92
2023-02-27T16:15:24.518Z,6.53
2023-02-27T16:18:01.897Z,6.91
2023-02-27T16:20:42.066Z,7.31
2023-02-27T16:23:25.036Z,7.32
2023-02-27T16:26:17.910Z,7.48
2023-02-27T16:28:56.018Z,7.32
2023-02-27T16:31:37.748Z,6.64
2023-02-27T16:34:15.042Z,6.93
2023-02-27T16:36:52.096Z,6.68
2023-02-27T16:39:18.747Z,7.39
2023-02-27T16:41:45.370Z,7.19
2023-02-27T16:44:12.006Z,7.25
2023-02-27T16:46:38.636Z,6.92
2023-02-27T16:49:19.156Z,6.65
2023-02-27T16:51:46.695Z,6.66
2023-02-27T16:54:13.987Z,6.56
2023-02-27T16:56:41.292Z,7.02
2023-02-27T16:59:15.829Z,6.77
2023-02-27T17:01:42.701Z,6.97
2023-02-27T17:04:24.673Z,6.85
2023-02-27T17:06:52.178Z,7.01
2023-02-27T17:09:18.727Z,7.30
2023-02-27T17:11:45.251Z,7.24
2023-02-27T17:14:12.166Z,7.28
2023-02-27T17:16:38.783Z,6.98
2023-02-27T17:19:05.329Z,7.14
2023-02-27T17:21:31.911Z,7.11
2023-02-27T17:23:58.440Z,7.29
2023-02-27T17:26:26.831Z,7.06
2023-02-27T17:28:54.704Z,6.84
2023-02-27T17:31:22.915Z,7.12
2023-02-27T17:33:53.679Z,6.42
2023-02-27T17:36:22.225Z,6.22
2023-02-27T17:38:54.230Z,6.82
2023-02-27T17:41:20.756Z,6.27
2023-02-27T17:43:51.800Z,6.42
2023-02-27T17:46:18.403Z,6.84
2023-02-27T17:48:44.980Z,6.47
2023-02-27T17:51:13.782Z,6.35
2023-02-27T17:53:40.712Z,6.94
2023-02-27T17:56:07.988Z,6.86
2023-02-27T17:58:34.758Z,6.94
2023-02-27T18:01:13.414Z,6.54
2023-02-27T18:03:40.548Z,6.53
2023-02-27T18:06:07.478Z,5.86
2023-02-27T18:08:34.385Z,6.23
2023-02-27T18:11:01.509Z,6.40
2023-02-27T18:13:28.191Z,6.72
2023-02-27T18:15:56.070Z,6.87
2023-02-27T18:18:23.728Z,6.84
2023-02-27T18:21:10.248Z,6.60
2023-02-27T18:23:37.003Z,6.76
2023-02-27T18:26:04.363Z,6.86
2023-02-27T18:28:31.265Z,6.50
2023-02-27T18:30:58.198Z,6.39
2023-02-27T18:33:25.279Z,6.42
2023-02-27T18:35:51.874Z,5.93
2023-02-27T18:38:18.604Z,5.29
2023-02-27T18:40:45.377Z,5.88
2023-02-27T18:43:13.770Z,6.15
2023-02-27T18:45:41.298Z,5.81
2023-02-27T18:48:08.084Z,5.81
2023-02-27T18:50:34.750Z,5.56
2023-02-27T18:53:01.335Z,5.80
2023-02-27T18:55:27.913Z,5.63
2023-02-27T18:57:54.424Z,6.22
2023-02-27T19:00:24.247Z,5.64
2023-02-27T19:02:51.076Z,5.57
2023-02-27T19:05:17.694Z,5.52
2023-02-27T19:07:44.517Z,6.15
2023-02-27T19:10:11.557Z,5.51
2023-02-27T19:12:38.256Z,5.88
2023-02-27T19:15:05.577Z,5.49
2023-02-27T19:17:33.403Z,5.68
2023-02-27T19:19:59.984Z,5.83
2023-02-27T19:22:30.376Z,5.60
2023-02-27T19:24:57.464Z,5.72
2023-02-27T19:27:24.164Z,5.39
2023-02-27T19:29:51.546Z,5.49
2023-02-27T19:32:18.257Z,5.71
2023-02-27T19:34:44.876Z,5.85
2023-02-27T19:37:11.629Z,5.45
2023-02-27T19:39:38.234Z,5.20
2023-02-27T19:42:04.864Z,5.84
2023-02-27T19:44:31.405Z,5.63
2023-02-27T19:46:58.046Z,5.64
2023-02-27T19:49:24.653Z,5.70
2023-02-27T19:51:51.232Z,5.89
2023-02-27T19:54:17.842Z,5.98
2023-02-27T19:56:44.591Z,5.39
2023-02-27T19:59:12.252Z,6.02
2023-02-27T20:01:39.349Z,6.02
2023-02-27T20:04:06.867Z,5.89
2023-02-27T20:06:42.079Z,5.73
2023-02-27T20:09:14.964Z,5.74
2023-02-27T20:11:43.449Z,5.28
2023-02-27T20:14:11.477Z,5.23
2023-02-27T20:16:38.345Z,5.42
2023-02-27T20:19:06.645Z,5.02
2023-02-27T20:21:34.294Z,5.69
2023-02-27T20:24:01.131Z,5.51
2023-02-27T20:26:32.273Z,5.85
2023-02-27T20:29:01.772Z,5.94
2023-02-27T20:31:30.224Z,5.88
2023-02-27T20:33:57.811Z,5.59
2023-02-27T20:36:24.598Z,5.85
2023-02-27T20:38:51.135Z,5.86
2023-02-27T20:41:21.285Z,5.77
2023-02-27T20:43:48.962Z,5.97
2023-02-27T20:46:19.069Z,5.63
2023-02-27T20:48:46.535Z,5.16
2023-02-27T20:51:21.748Z,5.24
2023-02-27T20:53:51.395Z,5.38
2023-02-27T20:56:32.112Z,5.27
2023-02-27T20:59:01.058Z,5.24
2023-02-27T21:01:28.196Z,5.30
2023-02-27T21:03:57.154Z,5.41
2023-02-27T21:06:24.517Z,5.17
2023-02-27T21:08:53.871Z,5.51
2023-02-27T21:11:29.518Z,5.76
2023-02-27T21:13:58.137Z,5.26
2023-02-27T21:16:25.727Z,4.59
2023-02-27T21:18:53.777Z,5.43
2023-02-27T21:21:24.850Z,5.08
2023-02-27T21:23:51.961Z,5.72
2023-02-27T21:26:22.410Z,5.73
2023-02-27T21:28:55.354Z,5.54
2023-02-27T21:31:24.516Z,5.30
2023-02-27T21:33:52.217Z,5.59
2023-02-27T21:36:25.308Z,5.84
2023-02-27T21:38:56.387Z,5.67
2023-02-27T21:41:22.953Z,5.77
2023-02-27T21:43:49.613Z,5.95
2023-02-27T21:46:16.181Z,5.56
2023-02-27T21:48:43.419Z,5.83
2023-02-27T21:51:10.174Z,5.97
2023-02-27T21:53:36.977Z,6.19
2023-02-27T21:56:06.344Z,6.18
2023-02-27T21:58:33.035Z,5.84
2023-02-27T22:00:59.768Z,5.86
2023-02-27T22:03:34.066Z,5.83
2023-02-27T22:06:02.052Z,5.77
2023-02-27T22:08:28.764Z,5.93
2023-02-27T22:11:00.051Z,5.77
2023-02-27T22:13:27.431Z,5.91
2023-02-27T22:15:54.414Z,5.25
2023-02-27T22:18:20.990Z,5.68
2023-02-27T22:20:47.557Z,5.56
2023-02-27T22:23:14.260Z,5.63
2023-02-27T22:25:41.142Z,5.67
2023-02-27T22:28:08.016Z,5.30
2023-02-27T22:30:34.685Z,5.46
2023-02-27T22:33:01.255Z,5.46
2023-02-27T22:35:27.882Z,5.07
2023-02-27T22:37:54.430Z,5.56
2023-02-27T22:40:21.104Z,5.31
2023-02-27T22:42:50.356Z,5.41
2023-02-27T22:45:16.885Z,5.62
2023-02-27T22:47:43.441Z,5.41
2023-02-27T22:50:10.490Z,5.16
2023-02-27T22:52:37.363Z,5.66
2023-02-27T22:55:04.192Z,5.37
2023-02-27T22:57:30.727Z,5.64
2023-02-27T22:59:57.271Z,5.41
2023-02-27T23:02:23.943Z,5.16
2023-02-27T23:04:50.458Z,5.52
2023-02-27T23:07:17.041Z,5.44
2023-02-27T23:09:43.903Z,5.50
2023-02-27T23:12:10.544Z,5.39
2023-02-27T23:14:37.055Z,4.89
2023-02-27T23:17:03.642Z,5.46
2023-02-27T23:19:30.308Z,4.64
2023-02-27T23:21:56.846Z,5.13
2023-02-27T23:24:23.368Z,5.30
2023-02-27T23:26:51.744Z,4.95
2023-02-27T23:29:18.835Z,5.29
2023-02-27T23:31:45.652Z,5.11
2023-02-27T23:34:12.271Z,5.22
2023-02-27T23:36:39.376Z,5.38
2023-02-27T23:39:06.638Z,5.29
2023-02-27T23:41:34.063Z,5.39
2023-02-27T23:44:19.301Z,5.29
2023-02-27T23:46:45.887Z,4.82
2023-02-27T23:49:12.431Z,4.76
2023-02-27T23:51:39.001Z,5.19
2023-02-27T23:54:05.596Z,5.35
2023-02-27T23:56:32.386Z,5.39
2023-02-27T23:59:04.861Z,5.20
